sensor_id;sensor_type;location;lat;lon;timestamp;P1;durP1;ratioP1;P2;durP2;ratioP2
19645;SDS011;9971;52.446;13.452;2023-12-07T00:00:16;3.22;;;3.02;;
19645;SDS011;9971;52.446;13.452;2023-12-07T00:05:20;3.90;;;3.60;;
19645;SDS011;9971;52.446;13.452;2023-12-07T00:10:22;3.92;;;3.62;;
19645;SDS011;9971;52.446;13.452;2023-12-07T00:15:24;3.45;;;3.25;;
19645;SDS011;9971;52.446;13.452;2023-12-07T00:20:27;2.90;;;2.70;;
19645;SDS011;9971;52.446;13.452;2023-12-07T00:25:29;2.92;;;2.72;;
19645;SDS011;9971;52.446;13.452;2023-12-07T00:30:31;3.67;;;3.37;;
19645;SDS011;9971;52.446;13.452;2023-12-07T00:35:34;3.22;;;3.02;;
19645;SDS011;9971;52.446;13.452;2023-12-07T00:40:36;2.92;;;2.72;;
19645;SDS011;9971;52.446;13.452;2023-12-07T00:45:39;3.70;;;3.45;;
19645;SDS011;9971;52.446;13.452;2023-12-07T00:50:41;4.90;;;4.50;;
19645;SDS011;9971;52.446;13.452;2023-12-07T00:55:43;4.05;;;3.75;;
19645;SDS011;9971;52.446;13.452;2023-12-07T01:00:46;3.65;;;3.35;;
19645;SDS011;9971;52.446;13.452;2023-12-07T01:05:48;3.17;;;2.98;;
19645;SDS011;9971;52.446;13.452;2023-12-07T01:10:52;3.23;;;3.03;;
19645;SDS011;9971;52.446;13.452;2023-12-07T01:15:55;3.85;;;3.55;;
19645;SDS011;9971;52.446;13.452;2023-12-07T01:20:57;5.10;;;4.70;;
19645;SDS011;9971;52.446;13.452;2023-12-07T01:26:00;3.05;;;2.85;;
19645;SDS011;9971;52.446;13.452;2023-12-07T01:31:02;4.15;;;3.85;;
19645;SDS011;9971;52.446;13.452;2023-12-07T01:36:06;4.45;;;4.05;;
19645;SDS011;9971;52.446;13.452;2023-12-07T01:41:09;4.87;;;4.47;;
19645;SDS011;9971;52.446;13.452;2023-12-07T01:46:12;4.25;;;3.95;;
19645;SDS011;9971;52.446;13.452;2023-12-07T01:51:14;4.37;;;4.07;;
19645;SDS011;9971;52.446;13.452;2023-12-07T01:56:16;4.93;;;4.53;;
19645;SDS011;9971;52.446;13.452;2023-12-07T02:01:18;5.10;;;4.70;;
19645;SDS011;9971;52.446;13.452;2023-12-07T02:06:20;4.80;;;4.40;;
19645;SDS011;9971;52.446;13.452;2023-12-07T02:11:22;5.20;;;4.80;;
19645;SDS011;9971;52.446;13.452;2023-12-07T02:16:33;5.08;;;4.67;;
19645;SDS011;9971;52.446;13.452;2023-12-07T02:21:38;3.17;;;2.97;;
19645;SDS011;9971;52.446;13.452;2023-12-07T02:26:39;2.53;;;2.33;;
19645;SDS011;9971;52.446;13.452;2023-12-07T02:31:41;3.72;;;3.45;;
19645;SDS011;9971;52.446;13.452;2023-12-07T02:36:44;4.27;;;3.87;;
19645;SDS011;9971;52.446;13.452;2023-12-07T02:41:46;4.40;;;4.10;;
19645;SDS011;9971;52.446;13.452;2023-12-07T02:46:48;4.97;;;4.57;;
19645;SDS011;9971;52.446;13.452;2023-12-07T02:51:50;4.47;;;4.13;;
19645;SDS011;9971;52.446;13.452;2023-12-07T02:56:53;4.45;;;4.05;;
19645;SDS011;9971;52.446;13.452;2023-12-07T03:01:55;4.33;;;3.95;;
19645;SDS011;9971;52.446;13.452;2023-12-07T03:06:58;6.28;;;5.78;;
19645;SDS011;9971;52.446;13.452;2023-12-07T03:12:00;3.85;;;3.55;;
19645;SDS011;9971;52.446;13.452;2023-12-07T03:17:03;3.25;;;3.05;;
19645;SDS011;9971;52.446;13.452;2023-12-07T03:22:06;3.80;;;3.60;;
19645;SDS011;9971;52.446;13.452;2023-12-07T03:27:08;3.70;;;3.47;;
19645;SDS011;9971;52.446;13.452;2023-12-07T03:32:10;3.90;;;3.60;;
19645;SDS011;9971;52.446;13.452;2023-12-07T03:37:14;3.40;;;3.20;;
19645;SDS011;9971;52.446;13.452;2023-12-07T03:42:17;4.35;;;4.05;;
19645;SDS011;9971;52.446;13.452;2023-12-07T03:47:19;4.87;;;4.47;;
19645;SDS011;9971;52.446;13.452;2023-12-07T03:52:21;4.92;;;4.55;;
19645;SDS011;9971;52.446;13.452;2023-12-07T03:57:23;3.70;;;3.40;;
19645;SDS011;9971;52.446;13.452;2023-12-07T04:02:26;3.83;;;3.53;;
19645;SDS011;9971;52.446;13.452;2023-12-07T04:07:28;2.98;;;2.77;;
19645;SDS011;9971;52.446;13.452;2023-12-07T04:12:30;3.17;;;2.97;;
19645;SDS011;9971;52.446;13.452;2023-12-07T04:17:32;3.62;;;3.33;;
19645;SDS011;9971;52.446;13.452;2023-12-07T04:22:35;4.17;;;3.87;;
19645;SDS011;9971;52.446;13.452;2023-12-07T04:27:37;3.60;;;3.30;;
19645;SDS011;9971;52.446;13.452;2023-12-07T04:32:39;4.17;;;3.83;;
19645;SDS011;9971;52.446;13.452;2023-12-07T04:37:42;4.55;;;4.12;;
19645;SDS011;9971;52.446;13.452;2023-12-07T04:42:44;5.10;;;4.73;;
19645;SDS011;9971;52.446;13.452;2023-12-07T04:47:47;5.33;;;4.92;;
19645;SDS011;9971;52.446;13.452;2023-12-07T04:52:49;1.80;;;1.70;;
19645;SDS011;9971;52.446;13.452;2023-12-07T04:57:52;0.80;;;0.80;;
19645;SDS011;9971;52.446;13.452;2023-12-07T05:02:54;0.82;;;0.82;;
19645;SDS011;9971;52.446;13.452;2023-12-07T05:07:57;0.95;;;0.95;;
19645;SDS011;9971;52.446;13.452;2023-12-07T05:12:59;1.83;;;1.73;;
19645;SDS011;9971;52.446;13.452;2023-12-07T05:18:02;5.20;;;4.83;;
19645;SDS011;9971;52.446;13.452;2023-12-07T05:23:04;0.93;;;0.93;;
19645;SDS011;9971;52.446;13.452;2023-12-07T05:28:06;3.40;;;3.20;;
19645;SDS011;9971;52.446;13.452;2023-12-07T05:33:08;3.10;;;2.90;;
19645;SDS011;9971;52.446;13.452;2023-12-07T05:38:11;1.77;;;1.67;;
19645;SDS011;9971;52.446;13.452;2023-12-07T05:43:13;1.80;;;1.70;;
19645;SDS011;9971;52.446;13.452;2023-12-07T05:48:16;1.17;;;1.17;;
19645;SDS011;9971;52.446;13.452;2023-12-07T05:53:19;1.00;;;1.00;;
19645;SDS011;9971;52.446;13.452;2023-12-07T05:58:22;0.75;;;0.75;;
19645;SDS011;9971;52.446;13.452;2023-12-07T06:03:25;0.90;;;0.90;;
19645;SDS011;9971;52.446;13.452;2023-12-07T06:08:28;0.50;;;0.50;;
19645;SDS011;9971;52.446;13.452;2023-12-07T06:13:30;1.00;;;1.00;;
19645;SDS011;9971;52.446;13.452;2023-12-07T06:18:32;1.50;;;1.40;;
19645;SDS011;9971;52.446;13.452;2023-12-07T06:23:36;0.65;;;0.65;;
19645;SDS011;9971;52.446;13.452;2023-12-07T06:28:38;0.80;;;0.80;;
19645;SDS011;9971;52.446;13.452;2023-12-07T06:33:41;0.98;;;0.98;;
19645;SDS011;9971;52.446;13.452;2023-12-07T06:38:43;0.75;;;0.75;;
19645;SDS011;9971;52.446;13.452;2023-12-07T06:43:45;2.55;;;2.35;;
19645;SDS011;9971;52.446;13.452;2023-12-07T06:48:48;1.70;;;1.60;;
19645;SDS011;9971;52.446;13.452;2023-12-07T06:53:51;1.30;;;1.20;;
19645;SDS011;9971;52.446;13.452;2023-12-07T06:58:54;3.98;;;3.67;;
19645;SDS011;9971;52.446;13.452;2023-12-07T07:03:56;1.90;;;1.80;;
19645;SDS011;9971;52.446;13.452;2023-12-07T07:08:59;1.75;;;1.65;;
19645;SDS011;9971;52.446;13.452;2023-12-07T07:14:01;2.07;;;1.93;;
19645;SDS011;9971;52.446;13.452;2023-12-07T07:19:04;3.12;;;2.83;;
19645;SDS011;9971;52.446;13.452;2023-12-07T07:24:06;3.95;;;3.62;;
19645;SDS011;9971;52.446;13.452;2023-12-07T07:29:09;3.45;;;3.25;;
19645;SDS011;9971;52.446;13.452;2023-12-07T07:34:11;2.72;;;2.52;;
19645;SDS011;9971;52.446;13.452;2023-12-07T07:39:14;2.50;;;2.30;;
19645;SDS011;9971;52.446;13.452;2023-12-07T07:44:16;3.17;;;2.95;;
19645;SDS011;9971;52.446;13.452;2023-12-07T07:49:19;5.28;;;4.85;;
19645;SDS011;9971;52.446;13.452;2023-12-07T07:54:22;3.15;;;2.95;;
19645;SDS011;9971;52.446;13.452;2023-12-07T07:59:25;1.77;;;1.67;;
19645;SDS011;9971;52.446;13.452;2023-12-07T08:04:28;2.33;;;2.12;;
19645;SDS011;9971;52.446;13.452;2023-12-07T08:09:30;1.55;;;1.45;;
19645;SDS011;9971;52.446;13.452;2023-12-07T08:14:33;1.67;;;1.57;;
19645;SDS011;9971;52.446;13.452;2023-12-07T08:19:35;5.10;;;4.70;;
19645;SDS011;9971;52.446;13.452;2023-12-07T08:24:38;7.95;;;7.25;;
19645;SDS011;9971;52.446;13.452;2023-12-07T08:29:40;6.30;;;5.70;;
19645;SDS011;9971;52.446;13.452;2023-12-07T08:34:43;5.17;;;4.78;;
19645;SDS011;9971;52.446;13.452;2023-12-07T08:39:45;4.67;;;4.28;;
19645;SDS011;9971;52.446;13.452;2023-12-07T08:44:47;3.22;;;2.92;;
19645;SDS011;9971;52.446;13.452;2023-12-07T08:49:51;5.87;;;5.28;;
19645;SDS011;9971;52.446;13.452;2023-12-07T08:54:54;1.40;;;1.30;;
19645;SDS011;9971;52.446;13.452;2023-12-07T08:59:57;7.90;;;7.20;;
19645;SDS011;9971;52.446;13.452;2023-12-07T09:04:59;8.80;;;8.00;;
19645;SDS011;9971;52.446;13.452;2023-12-07T09:10:02;8.65;;;7.87;;
19645;SDS011;9971;52.446;13.452;2023-12-07T09:15:06;8.38;;;7.67;;
19645;SDS011;9971;52.446;13.452;2023-12-07T09:20:09;11.07;;;10.00;;
19645;SDS011;9971;52.446;13.452;2023-12-07T09:25:16;9.67;;;8.77;;
19645;SDS011;9971;52.446;13.452;2023-12-07T09:30:20;6.70;;;6.10;;
19645;SDS011;9971;52.446;13.452;2023-12-07T09:35:24;11.30;;;10.20;;
19645;SDS011;9971;52.446;13.452;2023-12-07T09:40:26;9.00;;;8.20;;
19645;SDS011;9971;52.446;13.452;2023-12-07T09:45:28;10.20;;;9.20;;
19645;SDS011;9971;52.446;13.452;2023-12-07T09:50:31;8.93;;;8.10;;
19645;SDS011;9971;52.446;13.452;2023-12-07T09:55:33;9.37;;;8.27;;
19645;SDS011;9971;52.446;13.452;2023-12-07T10:00:36;12.10;;;11.00;;
19645;SDS011;9971;52.446;13.452;2023-12-07T10:10:46;8.30;;;7.53;;
19645;SDS011;9971;52.446;13.452;2023-12-07T10:15:47;8.53;;;7.72;;
19645;SDS011;9971;52.446;13.452;2023-12-07T10:20:49;5.90;;;5.40;;
19645;SDS011;9971;52.446;13.452;2023-12-07T10:25:52;8.88;;;8.08;;
19645;SDS011;9971;52.446;13.452;2023-12-07T10:30:54;9.10;;;8.30;;
19645;SDS011;9971;52.446;13.452;2023-12-07T10:35:56;7.78;;;7.08;;
19645;SDS011;9971;52.446;13.452;2023-12-07T10:41:03;10.82;;;9.75;;
19645;SDS011;9971;52.446;13.452;2023-12-07T10:46:05;7.83;;;7.13;;
19645;SDS011;9971;52.446;13.452;2023-12-07T10:51:08;9.97;;;9.07;;
19645;SDS011;9971;52.446;13.452;2023-12-07T10:56:10;7.10;;;6.47;;
19645;SDS011;9971;52.446;13.452;2023-12-07T11:01:11;5.90;;;5.40;;
19645;SDS011;9971;52.446;13.452;2023-12-07T11:06:13;9.33;;;8.43;;
19645;SDS011;9971;52.446;13.452;2023-12-07T11:11:20;10.30;;;9.40;;
19645;SDS011;9971;52.446;13.452;2023-12-07T11:16:29;10.70;;;9.70;;
19645;SDS011;9971;52.446;13.452;2023-12-07T11:21:31;9.37;;;8.53;;
19645;SDS011;9971;52.446;13.452;2023-12-07T11:26:33;7.93;;;7.23;;
19645;SDS011;9971;52.446;13.452;2023-12-07T11:31:36;6.97;;;6.40;;
19645;SDS011;9971;52.446;13.452;2023-12-07T11:36:38;6.22;;;5.72;;
19645;SDS011;9971;52.446;13.452;2023-12-07T11:41:43;7.25;;;6.60;;
19645;SDS011;9971;52.446;13.452;2023-12-07T11:46:45;7.37;;;6.77;;
19645;SDS011;9971;52.446;13.452;2023-12-07T11:51:46;4.77;;;4.40;;
19645;SDS011;9971;52.446;13.452;2023-12-07T11:56:54;8.25;;;7.55;;
19645;SDS011;9971;52.446;13.452;2023-12-07T12:01:56;6.27;;;5.77;;
19645;SDS011;9971;52.446;13.452;2023-12-07T12:06:58;6.80;;;6.20;;
19645;SDS011;9971;52.446;13.452;2023-12-07T12:12:00;10.48;;;9.55;;
19645;SDS011;9971;52.446;13.452;2023-12-07T12:17:02;6.23;;;5.63;;
19645;SDS011;9971;52.446;13.452;2023-12-07T12:22:05;9.30;;;8.53;;
19645;SDS011;9971;52.446;13.452;2023-12-07T12:27:07;6.33;;;5.83;;
19645;SDS011;9971;52.446;13.452;2023-12-07T12:32:10;6.60;;;6.00;;
19645;SDS011;9971;52.446;13.452;2023-12-07T12:37:12;8.15;;;7.45;;
19645;SDS011;9971;52.446;13.452;2023-12-07T12:42:14;6.73;;;6.13;;
19645;SDS011;9971;52.446;13.452;2023-12-07T12:47:17;9.90;;;9.05;;
19645;SDS011;9971;52.446;13.452;2023-12-07T12:52:19;12.77;;;11.67;;
19645;SDS011;9971;52.446;13.452;2023-12-07T12:57:22;11.35;;;10.28;;
19645;SDS011;9971;52.446;13.452;2023-12-07T13:02:24;10.93;;;9.93;;
19645;SDS011;9971;52.446;13.452;2023-12-07T13:07:26;11.33;;;10.32;;
19645;SDS011;9971;52.446;13.452;2023-12-07T13:12:29;7.75;;;7.05;;
19645;SDS011;9971;52.446;13.452;2023-12-07T13:17:31;9.15;;;8.35;;
19645;SDS011;9971;52.446;13.452;2023-12-07T13:22:33;11.48;;;10.38;;
19645;SDS011;9971;52.446;13.452;2023-12-07T13:27:36;9.63;;;8.73;;
19645;SDS011;9971;52.446;13.452;2023-12-07T13:32:38;10.00;;;9.07;;
19645;SDS011;9971;52.446;13.452;2023-12-07T13:37:41;10.98;;;9.95;;
19645;SDS011;9971;52.446;13.452;2023-12-07T13:42:43;10.53;;;9.53;;
19645;SDS011;9971;52.446;13.452;2023-12-07T13:47:45;8.77;;;7.97;;
19645;SDS011;9971;52.446;13.452;2023-12-07T13:52:48;11.38;;;10.28;;
19645;SDS011;9971;52.446;13.452;2023-12-07T13:57:50;13.00;;;11.70;;
19645;SDS011;9971;52.446;13.452;2023-12-07T14:02:53;14.50;;;13.10;;
19645;SDS011;9971;52.446;13.452;2023-12-07T14:07:55;10.67;;;9.67;;
19645;SDS011;9971;52.446;13.452;2023-12-07T14:12:57;8.80;;;8.00;;
19645;SDS011;9971;52.446;13.452;2023-12-07T14:18:00;8.60;;;7.83;;
19645;SDS011;9971;52.446;13.452;2023-12-07T14:23:01;7.87;;;7.17;;
19645;SDS011;9971;52.446;13.452;2023-12-07T14:28:04;8.28;;;7.47;;
19645;SDS011;9971;52.446;13.452;2023-12-07T14:33:07;9.10;;;8.20;;
19645;SDS011;9971;52.446;13.452;2023-12-07T14:38:09;7.55;;;6.85;;
19645;SDS011;9971;52.446;13.452;2023-12-07T14:43:12;4.78;;;4.37;;
19645;SDS011;9971;52.446;13.452;2023-12-07T14:48:14;9.58;;;8.68;;
19645;SDS011;9971;52.446;13.452;2023-12-07T14:53:16;5.97;;;5.42;;
19645;SDS011;9971;52.446;13.452;2023-12-07T14:58:19;6.17;;;5.58;;
19645;SDS011;9971;52.446;13.452;2023-12-07T15:03:21;10.80;;;9.70;;
19645;SDS011;9971;52.446;13.452;2023-12-07T15:08:24;13.22;;;11.83;;
19645;SDS011;9971;52.446;13.452;2023-12-07T15:13:26;9.20;;;8.18;;
19645;SDS011;9971;52.446;13.452;2023-12-07T15:18:29;6.45;;;5.67;;
19645;SDS011;9971;52.446;13.452;2023-12-07T15:23:31;5.00;;;4.13;;
19645;SDS011;9971;52.446;13.452;2023-12-07T15:28:33;7.80;;;6.53;;
19645;SDS011;9971;52.446;13.452;2023-12-07T15:33:35;2.20;;;2.00;;
19645;SDS011;9971;52.446;13.452;2023-12-07T15:38:37;7.72;;;5.72;;
19645;SDS011;9971;52.446;13.452;2023-12-07T15:43:41;8.83;;;7.20;;
19645;SDS011;9971;52.446;13.452;2023-12-07T15:48:43;9.97;;;8.47;;
19645;SDS011;9971;52.446;13.452;2023-12-07T15:53:46;8.85;;;7.37;;
19645;SDS011;9971;52.446;13.452;2023-12-07T15:58:48;4.90;;;4.12;;
19645;SDS011;9971;52.446;13.452;2023-12-07T16:03:52;4.80;;;4.25;;
19645;SDS011;9971;52.446;13.452;2023-12-07T16:08:54;4.50;;;4.10;;
19645;SDS011;9971;52.446;13.452;2023-12-07T16:13:57;3.50;;;3.17;;
19645;SDS011;9971;52.446;13.452;2023-12-07T16:18:59;6.72;;;5.28;;
19645;SDS011;9971;52.446;13.452;2023-12-07T16:24:02;13.35;;;9.63;;
19645;SDS011;9971;52.446;13.452;2023-12-07T16:29:04;28.65;;;22.00;;
19645;SDS011;9971;52.446;13.452;2023-12-07T16:59:06;20.72;;;14.20;;
19645;SDS011;9971;52.446;13.452;2023-12-07T17:04:09;19.23;;;14.45;;
19645;SDS011;9971;52.446;13.452;2023-12-07T17:09:11;18.10;;;13.93;;
19645;SDS011;9971;52.446;13.452;2023-12-07T17:14:13;14.95;;;11.35;;
19645;SDS011;9971;52.446;13.452;2023-12-07T17:19:16;11.70;;;9.28;;
19645;SDS011;9971;52.446;13.452;2023-12-07T17:24:18;18.07;;;13.73;;
19645;SDS011;9971;52.446;13.452;2023-12-07T17:29:20;14.60;;;11.93;;
19645;SDS011;9971;52.446;13.452;2023-12-07T17:34:22;14.50;;;12.33;;
19645;SDS011;9971;52.446;13.452;2023-12-07T17:39:24;11.48;;;10.25;;
19645;SDS011;9971;52.446;13.452;2023-12-07T17:44:27;14.60;;;11.65;;
19645;SDS011;9971;52.446;13.452;2023-12-07T17:49:29;11.95;;;8.88;;
19645;SDS011;9971;52.446;13.452;2023-12-07T17:54:31;6.65;;;6.00;;
19645;SDS011;9971;52.446;13.452;2023-12-07T17:59:34;2.43;;;2.23;;
19645;SDS011;9971;52.446;13.452;2023-12-07T18:04:37;8.15;;;7.30;;
19645;SDS011;9971;52.446;13.452;2023-12-07T18:09:40;7.85;;;6.53;;
19645;SDS011;9971;52.446;13.452;2023-12-07T18:14:41;6.00;;;5.40;;
19645;SDS011;9971;52.446;13.452;2023-12-07T18:19:43;4.37;;;3.98;;
19645;SDS011;9971;52.446;13.452;2023-12-07T18:24:46;4.08;;;3.67;;
19645;SDS011;9971;52.446;13.452;2023-12-07T18:29:48;3.17;;;2.93;;
19645;SDS011;9971;52.446;13.452;2023-12-07T18:34:50;2.40;;;2.20;;
19645;SDS011;9971;52.446;13.452;2023-12-07T18:39:53;2.60;;;2.40;;
19645;SDS011;9971;52.446;13.452;2023-12-07T18:44:55;2.80;;;2.60;;
19645;SDS011;9971;52.446;13.452;2023-12-07T18:49:58;2.52;;;2.33;;
19645;SDS011;9971;52.446;13.452;2023-12-07T18:55:00;4.00;;;3.55;;
19645;SDS011;9971;52.446;13.452;2023-12-07T19:00:03;2.42;;;2.22;;
19645;SDS011;9971;52.446;13.452;2023-12-07T19:05:06;1.82;;;1.72;;
19645;SDS011;9971;52.446;13.452;2023-12-07T19:10:09;3.37;;;3.08;;
19645;SDS011;9971;52.446;13.452;2023-12-07T19:15:12;0.70;;;0.70;;
19645;SDS011;9971;52.446;13.452;2023-12-07T19:20:14;0.80;;;0.80;;
19645;SDS011;9971;52.446;13.452;2023-12-07T19:25:17;0.90;;;0.90;;
19645;SDS011;9971;52.446;13.452;2023-12-07T19:30:19;0.62;;;0.62;;
19645;SDS011;9971;52.446;13.452;2023-12-07T19:35:21;0.90;;;0.90;;
19645;SDS011;9971;52.446;13.452;2023-12-07T19:40:24;0.78;;;0.78;;
19645;SDS011;9971;52.446;13.452;2023-12-07T19:45:26;1.55;;;1.45;;
19645;SDS011;9971;52.446;13.452;2023-12-07T19:50:29;0.57;;;0.57;;
19645;SDS011;9971;52.446;13.452;2023-12-07T19:55:32;0.60;;;0.60;;
19645;SDS011;9971;52.446;13.452;2023-12-07T20:00:35;0.47;;;0.47;;
19645;SDS011;9971;52.446;13.452;2023-12-07T20:05:38;0.50;;;0.50;;
19645;SDS011;9971;52.446;13.452;2023-12-07T20:10:40;0.60;;;0.60;;
19645;SDS011;9971;52.446;13.452;2023-12-07T20:15:43;0.68;;;0.68;;
19645;SDS011;9971;52.446;13.452;2023-12-07T20:20:45;1.00;;;1.00;;
19645;SDS011;9971;52.446;13.452;2023-12-07T20:25:48;0.80;;;0.80;;
19645;SDS011;9971;52.446;13.452;2023-12-07T20:30:51;0.53;;;0.53;;
19645;SDS011;9971;52.446;13.452;2023-12-07T20:35:53;0.70;;;0.70;;
19645;SDS011;9971;52.446;13.452;2023-12-07T20:40:56;0.40;;;0.40;;
19645;SDS011;9971;52.446;13.452;2023-12-07T20:45:58;0.63;;;0.63;;
19645;SDS011;9971;52.446;13.452;2023-12-07T20:51:01;0.60;;;0.60;;
19645;SDS011;9971;52.446;13.452;2023-12-07T20:56:03;0.80;;;0.80;;
19645;SDS011;9971;52.446;13.452;2023-12-07T21:01:06;0.62;;;0.62;;
19645;SDS011;9971;52.446;13.452;2023-12-07T21:06:08;0.90;;;0.90;;
19645;SDS011;9971;52.446;13.452;2023-12-07T21:11:10;0.70;;;0.70;;
19645;SDS011;9971;52.446;13.452;2023-12-07T21:16:12;0.80;;;0.80;;
19645;SDS011;9971;52.446;13.452;2023-12-07T21:21:15;0.55;;;0.55;;
19645;SDS011;9971;52.446;13.452;2023-12-07T21:26:17;0.40;;;0.40;;
19645;SDS011;9971;52.446;13.452;2023-12-07T21:31:20;0.70;;;0.70;;
19645;SDS011;9971;52.446;13.452;2023-12-07T21:36:23;0.83;;;0.83;;
19645;SDS011;9971;52.446;13.452;2023-12-07T21:41:25;1.05;;;1.00;;
19645;SDS011;9971;52.446;13.452;2023-12-07T21:46:28;0.88;;;0.88;;
19645;SDS011;9971;52.446;13.452;2023-12-07T21:51:30;0.80;;;0.80;;
19645;SDS011;9971;52.446;13.452;2023-12-07T21:56:32;0.88;;;0.80;;
19645;SDS011;9971;52.446;13.452;2023-12-07T22:01:35;0.82;;;0.82;;
19645;SDS011;9971;52.446;13.452;2023-12-07T22:06:37;0.83;;;0.83;;
19645;SDS011;9971;52.446;13.452;2023-12-07T22:11:41;0.60;;;0.60;;
19645;SDS011;9971;52.446;13.452;2023-12-07T22:16:42;0.50;;;0.50;;
19645;SDS011;9971;52.446;13.452;2023-12-07T22:21:44;0.70;;;0.70;;
19645;SDS011;9971;52.446;13.452;2023-12-07T22:26:46;0.82;;;0.82;;
19645;SDS011;9971;52.446;13.452;2023-12-07T22:31:49;1.10;;;0.82;;
19645;SDS011;9971;52.446;13.452;2023-12-07T22:36:51;0.60;;;0.60;;
19645;SDS011;9971;52.446;13.452;2023-12-07T22:41:54;0.85;;;0.85;;
19645;SDS011;9971;52.446;13.452;2023-12-07T22:46:56;0.93;;;0.93;;
19645;SDS011;9971;52.446;13.452;2023-12-07T22:51:58;18.70;;;16.67;;
19645;SDS011;9971;52.446;13.452;2023-12-07T22:57:00;22.37;;;16.82;;
19645;SDS011;9971;52.446;13.452;2023-12-07T23:02:04;14.70;;;11.40;;
19645;SDS011;9971;52.446;13.452;2023-12-07T23:07:07;12.33;;;9.20;;
19645;SDS011;9971;52.446;13.452;2023-12-07T23:12:09;11.65;;;8.98;;
19645;SDS011;9971;52.446;13.452;2023-12-07T23:17:12;4.58;;;3.95;;
19645;SDS011;9971;52.446;13.452;2023-12-07T23:22:15;3.40;;;3.10;;
19645;SDS011;9971;52.446;13.452;2023-12-07T23:27:17;1.90;;;1.50;;
19645;SDS011;9971;52.446;13.452;2023-12-07T23:32:19;1.05;;;0.98;;
19645;SDS011;9971;52.446;13.452;2023-12-07T23:37:22;0.80;;;0.80;;
19645;SDS011;9971;52.446;13.452;2023-12-07T23:42:24;0.60;;;0.60;;
19645;SDS011;9971;52.446;13.452;2023-12-07T23:47:27;0.80;;;0.80;;
19645;SDS011;9971;52.446;13.452;2023-12-07T23:52:29;0.90;;;0.90;;
19645;SDS011;9971;52.446;13.452;2023-12-07T23:57:32;1.10;;;1.00;;
